Huvudsida
METAR-TAF:

METAR-TAF

Flygplatser :

Dole, Frankrike

latitud: 47-02-34N, longitud: 005-26-06E, höjd: 196 m

Aktuellt väderrapport

Denna rapport gjordes för 27 minuter sedan, klockan 03:30 UTC
Vind 4 kt från nord
Temperatur 16°C
Fuktighet 77%
Tryck 1014 hPa
Sikt 10 km eller mer
Inga moln under 1 500 m eller inga cumulonimbus

METAR: LFGJ 150330Z AUTO 36004KT CAVOK 16/12 Q1014

Tid: 05:57 (03:57 UTC)

Väderprognos

Denna rapport gjordes för 13 timmar och 57 minuter sedan, klockan 14:00 UTC
Prognos gäller från 14 kl. 15 UTC till 14 kl. 24 UTC
Vind 5 kt från nordväst
Sikt 10 km eller mer
Inga moln under 1 500 m eller inga cumulonimbus

TAF: LFGJ 141400Z 1415/1424 31005KT CAVOK

Aktuella väderrapporter och prognoser från 4000 flygplatser (METAR- och TAF-rapporter).

De tillgängliga stationerna syns som gula och röda prickar på kartan.

För musen över prickarna för att se namnen på stationerna.

Klicka sedan för att få väderrapporter och prognoser.

För att ändra kartan: Klicka på de gröna knapparna med ett svart kors på för att zooma in; den gröna knappen med ett streck på för att zooma ut; eller på de gröna pilarna för angränsande kartor.


METAR-TAF: